createdAt,value
2017-08-30T00:01:36.664Z,22.20
2017-08-30T00:04:04.640Z,22.20
2017-08-30T00:06:32.098Z,22.20
2017-08-30T00:08:59.557Z,22.20
2017-08-30T00:11:27.013Z,22.10
2017-08-30T00:13:54.465Z,22.10
2017-08-30T00:16:21.924Z,22.00
2017-08-30T00:18:49.389Z,22.00
2017-08-30T00:21:16.845Z,22.00
2017-08-30T00:23:44.305Z,21.90
2017-08-30T00:26:23.571Z,21.80
2017-08-30T00:28:51.021Z,21.70
2017-08-30T00:31:18.473Z,21.70
2017-08-30T00:33:45.924Z,21.70
2017-08-30T00:36:13.373Z,21.70
2017-08-30T00:38:40.822Z,21.80
2017-08-30T00:41:08.266Z,21.70
2017-08-30T00:43:35.736Z,21.70
2017-08-30T00:46:03.189Z,21.70
2017-08-30T00:48:30.649Z,21.70
2017-08-30T00:50:58.100Z,21.80
2017-08-30T00:53:25.554Z,21.80
2017-08-30T00:55:53.025Z,21.70
2017-08-30T00:58:20.469Z,21.70
2017-08-30T01:00:47.938Z,21.70
2017-08-30T01:03:15.390Z,21.70
2017-08-30T01:05:42.840Z,21.60
2017-08-30T01:08:10.305Z,21.60
2017-08-30T01:10:37.765Z,21.50
2017-08-30T01:13:05.229Z,21.50
2017-08-30T01:15:32.682Z,21.40
2017-08-30T01:18:00.138Z,21.40
2017-08-30T01:20:27.584Z,21.30
2017-08-30T01:22:55.040Z,21.40
2017-08-30T01:25:22.491Z,21.40
2017-08-30T01:27:49.950Z,21.40
2017-08-30T01:30:17.416Z,21.40
2017-08-30T01:32:44.866Z,21.50
2017-08-30T01:35:12.725Z,21.40
2017-08-30T01:37:40.182Z,21.30
2017-08-30T01:40:07.642Z,21.30
2017-08-30T01:42:35.135Z,21.30
2017-08-30T01:45:02.566Z,21.40
2017-08-30T01:47:30.011Z,21.40
2017-08-30T01:49:57.443Z,21.40
2017-08-30T01:52:24.921Z,21.40
2017-08-30T01:54:52.376Z,21.40
2017-08-30T01:57:19.834Z,21.30
2017-08-30T01:59:47.276Z,21.20
2017-08-30T02:02:14.736Z,21.10
2017-08-30T02:04:43.000Z,21.10
2017-08-30T02:07:10.452Z,21.00
2017-08-30T02:09:37.909Z,21.00
2017-08-30T02:12:05.361Z,21.00
2017-08-30T02:14:32.828Z,21.00
2017-08-30T02:17:00.280Z,21.00
2017-08-30T02:19:27.738Z,21.00
2017-08-30T02:21:55.185Z,21.00
2017-08-30T02:24:22.642Z,20.90
2017-08-30T02:26:50.097Z,21.00
2017-08-30T02:29:17.562Z,20.90
2017-08-30T02:31:45.018Z,20.90
2017-08-30T02:34:12.477Z,20.90
2017-08-30T02:36:39.925Z,20.90
2017-08-30T02:39:07.373Z,20.80
2017-08-30T02:41:34.832Z,20.80
2017-08-30T02:44:02.279Z,20.80
2017-08-30T02:46:29.733Z,20.80
2017-08-30T02:48:58.133Z,20.80
2017-08-30T02:51:25.588Z,20.80
2017-08-30T02:53:53.040Z,20.80
2017-08-30T02:56:20.497Z,20.80
2017-08-30T02:58:47.958Z,20.80
2017-08-30T03:01:15.409Z,20.80
2017-08-30T03:03:42.870Z,20.80
2017-08-30T03:06:10.313Z,20.80
2017-08-30T03:08:37.769Z,20.80
2017-08-30T03:11:05.213Z,20.90
2017-08-30T03:13:32.677Z,20.90
2017-08-30T03:16:00.120Z,20.90
2017-08-30T03:18:27.573Z,20.90
2017-08-30T03:20:55.029Z,20.90
2017-08-30T03:23:22.473Z,20.90
2017-08-30T03:25:49.928Z,20.90
2017-08-30T03:28:17.388Z,20.90
2017-08-30T03:30:44.850Z,20.80
2017-08-30T03:33:12.312Z,20.80
2017-08-30T03:35:39.773Z,20.70
2017-08-30T03:38:07.228Z,20.70
2017-08-30T03:40:34.685Z,20.60
2017-08-30T03:43:02.141Z,20.70
2017-08-30T03:45:29.609Z,20.70
2017-08-30T03:47:57.072Z,20.70
2017-08-30T03:50:24.515Z,20.70
2017-08-30T03:52:51.965Z,20.70
2017-08-30T03:55:19.661Z,20.70
2017-08-30T03:57:47.286Z,20.70
2017-08-30T04:00:14.739Z,20.60
2017-08-30T04:02:42.195Z,20.60
2017-08-30T04:05:09.659Z,20.60
2017-08-30T04:07:37.127Z,20.60
2017-08-30T04:10:04.572Z,20.60
2017-08-30T04:12:32.036Z,20.60
2017-08-30T04:14:59.490Z,20.60
2017-08-30T04:17:27.212Z,20.60
2017-08-30T04:19:54.669Z,20.60
2017-08-30T04:22:22.109Z,20.60
2017-08-30T04:24:49.961Z,20.60
2017-08-30T04:27:17.422Z,20.60
2017-08-30T04:29:44.880Z,20.60
2017-08-30T04:32:12.340Z,20.60
2017-08-30T04:34:39.813Z,20.60
2017-08-30T04:37:07.270Z,20.60
2017-08-30T04:39:36.236Z,20.50
2017-08-30T04:42:03.739Z,20.40
2017-08-30T04:44:31.197Z,20.40
2017-08-30T04:46:58.657Z,20.40
2017-08-30T04:49:26.109Z,20.40
2017-08-30T04:51:53.573Z,20.40
2017-08-30T04:54:21.021Z,20.30
2017-08-30T04:56:48.516Z,20.30
2017-08-30T04:59:15.973Z,20.30
2017-08-30T05:01:43.429Z,20.30
2017-08-30T05:04:10.868Z,20.20
2017-08-30T05:06:38.344Z,20.30
2017-08-30T05:09:05.826Z,20.20
2017-08-30T05:11:33.292Z,20.20
2017-08-30T05:14:00.849Z,20.20
2017-08-30T05:16:28.305Z,20.20
2017-08-30T05:18:55.764Z,20.20
2017-08-30T05:21:23.206Z,20.20
2017-08-30T05:23:50.664Z,20.20
2017-08-30T05:26:18.110Z,20.20
2017-08-30T05:28:45.564Z,20.20
2017-08-30T05:31:13.327Z,20.20
2017-08-30T05:33:40.793Z,20.20
2017-08-30T05:36:08.792Z,20.20
2017-08-30T05:38:36.245Z,20.30
2017-08-30T05:41:03.697Z,20.30
2017-08-30T05:43:31.160Z,20.30
2017-08-30T05:46:00.377Z,20.30
2017-08-30T05:48:27.898Z,20.30
2017-08-30T05:50:55.362Z,20.30
2017-08-30T05:53:22.826Z,20.40
2017-08-30T05:55:50.305Z,20.40
2017-08-30T05:58:17.745Z,20.40
2017-08-30T06:00:45.188Z,20.40
2017-08-30T06:03:12.673Z,20.40
2017-08-30T06:05:40.125Z,20.50
2017-08-30T06:08:07.589Z,20.50
2017-08-30T06:10:35.042Z,20.50
2017-08-30T06:13:02.513Z,20.50
2017-08-30T06:15:29.968Z,20.60
2017-08-30T06:17:57.417Z,20.60
2017-08-30T06:20:24.876Z,20.60
2017-08-30T06:22:52.365Z,20.70
2017-08-30T06:25:19.825Z,20.70
2017-08-30T06:27:49.077Z,20.80
2017-08-30T06:30:16.540Z,20.80
2017-08-30T06:32:43.992Z,20.90
2017-08-30T06:35:11.541Z,20.90
2017-08-30T06:37:38.997Z,20.90
2017-08-30T06:40:06.558Z,21.00
2017-08-30T06:42:34.023Z,21.00
2017-08-30T06:45:01.588Z,21.10
2017-08-30T06:47:29.046Z,21.10
2017-08-30T06:49:56.496Z,21.10
2017-08-30T06:52:23.959Z,21.20
2017-08-30T06:54:51.421Z,21.20
2017-08-30T06:57:18.868Z,21.30
2017-08-30T06:59:46.321Z,21.30
2017-08-30T07:02:13.789Z,21.30
2017-08-30T07:04:41.429Z,21.40
2017-08-30T07:07:08.880Z,21.40
2017-08-30T07:09:36.413Z,21.40
2017-08-30T07:12:03.877Z,21.50
2017-08-30T07:14:31.311Z,21.50
2017-08-30T07:16:58.776Z,21.60
2017-08-30T07:19:26.237Z,21.60
2017-08-30T07:21:53.684Z,21.70
2017-08-30T07:24:21.422Z,21.70
2017-08-30T07:26:48.868Z,21.70
2017-08-30T07:29:16.426Z,21.80
2017-08-30T07:31:43.868Z,21.80
2017-08-30T07:34:11.335Z,21.80
2017-08-30T07:36:38.785Z,21.90
2017-08-30T07:39:06.294Z,22.00
2017-08-30T07:41:33.762Z,22.10
2017-08-30T07:44:01.215Z,22.10
2017-08-30T07:46:28.676Z,22.10
2017-08-30T07:48:56.134Z,22.20
2017-08-30T07:51:23.593Z,22.20
2017-08-30T07:53:51.057Z,22.20
2017-08-30T07:56:18.519Z,22.20
2017-08-30T07:58:45.961Z,22.20
2017-08-30T08:01:13.421Z,22.20
2017-08-30T08:03:40.908Z,22.20
2017-08-30T08:06:08.361Z,22.30
2017-08-30T08:08:36.279Z,22.30
2017-08-30T08:11:03.732Z,22.30
2017-08-30T08:13:31.444Z,22.30
2017-08-30T08:15:58.901Z,22.30
2017-08-30T08:18:26.374Z,22.40
2017-08-30T08:20:53.826Z,22.50
2017-08-30T08:23:21.275Z,22.50
2017-08-30T08:25:48.728Z,22.50
2017-08-30T08:28:16.561Z,22.60
2017-08-30T08:30:44.035Z,22.60
2017-08-30T08:33:11.495Z,22.70
2017-08-30T08:35:38.948Z,22.70
2017-08-30T08:38:06.389Z,22.70
2017-08-30T08:40:33.857Z,22.80
2017-08-30T08:43:01.316Z,23.00
2017-08-30T08:45:28.778Z,23.10
2017-08-30T08:47:56.246Z,23.20
2017-08-30T08:50:23.711Z,23.30
2017-08-30T08:52:51.176Z,23.40
2017-08-30T08:55:18.628Z,23.50
2017-08-30T08:57:46.082Z,23.50
2017-08-30T09:00:14.124Z,23.60
2017-08-30T09:02:41.580Z,23.60
2017-08-30T09:05:09.046Z,23.70
2017-08-30T09:07:36.504Z,23.70
2017-08-30T09:10:03.982Z,23.80
2017-08-30T09:12:31.500Z,23.80
2017-08-30T09:14:58.965Z,23.90
2017-08-30T09:17:26.426Z,24.00
2017-08-30T09:19:53.893Z,24.00
2017-08-30T09:22:21.345Z,24.10
2017-08-30T09:24:48.810Z,24.10
2017-08-30T09:27:16.272Z,24.10
2017-08-30T09:29:43.704Z,24.20
2017-08-30T09:32:11.206Z,24.30
2017-08-30T09:34:38.648Z,24.30
2017-08-30T09:37:06.110Z,24.30
2017-08-30T09:39:33.560Z,24.40
2017-08-30T09:42:01.020Z,24.50
2017-08-30T09:44:28.492Z,24.50
2017-08-30T09:46:55.945Z,24.60
2017-08-30T09:49:23.428Z,24.60
2017-08-30T09:51:50.881Z,24.70
2017-08-30T09:54:18.348Z,24.80
2017-08-30T09:56:45.860Z,24.80
2017-08-30T09:59:13.277Z,24.80
2017-08-30T10:01:40.745Z,24.80
2017-08-30T10:04:08.204Z,24.80
2017-08-30T10:06:35.661Z,24.80
2017-08-30T10:09:03.130Z,24.90
2017-08-30T10:11:30.609Z,25.00
2017-08-30T10:13:58.166Z,25.00
2017-08-30T10:16:25.625Z,25.00
2017-08-30T10:18:53.935Z,25.10
2017-08-30T10:21:21.392Z,25.20
2017-08-30T10:23:48.937Z,25.30
2017-08-30T10:26:16.393Z,25.30
2017-08-30T10:28:43.854Z,25.40
2017-08-30T10:31:11.308Z,25.50
2017-08-30T10:33:38.797Z,25.50
2017-08-30T10:36:06.359Z,25.60
2017-08-30T10:38:33.808Z,25.70
2017-08-30T10:41:01.268Z,25.70
2017-08-30T10:43:28.713Z,25.90
2017-08-30T10:45:56.174Z,25.90
2017-08-30T10:48:23.617Z,26.00
2017-08-30T10:50:51.081Z,26.00
2017-08-30T10:53:18.541Z,26.10
2017-08-30T10:55:46.061Z,26.20
2017-08-30T10:58:13.575Z,26.30
2017-08-30T11:00:41.033Z,26.40
2017-08-30T11:03:08.562Z,26.50
2017-08-30T11:05:36.024Z,26.60
2017-08-30T11:08:03.473Z,26.80
2017-08-30T11:10:30.921Z,27.10
2017-08-30T11:13:04.266Z,27.20
2017-08-30T11:15:31.718Z,27.40
2017-08-30T11:17:59.177Z,27.50
2017-08-30T11:20:26.636Z,27.50
2017-08-30T11:22:54.085Z,27.50
2017-08-30T11:25:21.541Z,27.50
2017-08-30T11:27:49.005Z,27.60
2017-08-30T11:30:16.467Z,27.60
2017-08-30T11:32:43.928Z,27.70
2017-08-30T11:35:12.687Z,27.80
2017-08-30T11:37:40.129Z,28.00
2017-08-30T11:40:07.585Z,28.00
2017-08-30T11:42:35.047Z,28.10
2017-08-30T11:45:02.475Z,28.10
2017-08-30T11:47:29.936Z,28.10
2017-08-30T11:49:57.394Z,28.20
2017-08-30T11:52:24.856Z,28.30
2017-08-30T11:54:52.323Z,28.40
2017-08-30T11:57:19.773Z,28.40
2017-08-30T11:59:47.261Z,28.40
2017-08-30T12:02:14.715Z,28.30
2017-08-30T12:04:42.166Z,28.40
2017-08-30T12:07:09.655Z,28.40
2017-08-30T12:09:37.105Z,28.50
2017-08-30T12:12:04.567Z,28.50
2017-08-30T12:14:32.026Z,28.50
2017-08-30T12:16:59.484Z,28.50
2017-08-30T12:19:26.948Z,28.50
2017-08-30T12:21:54.414Z,28.60
2017-08-30T12:24:21.859Z,28.60
2017-08-30T12:26:49.323Z,28.70
2017-08-30T12:29:16.769Z,28.80
2017-08-30T12:31:44.236Z,28.90
2017-08-30T12:34:11.708Z,29.00
2017-08-30T12:36:44.939Z,29.00
2017-08-30T12:39:18.129Z,29.10
2017-08-30T12:41:45.591Z,29.10
2017-08-30T12:44:13.036Z,29.10
2017-08-30T12:46:40.496Z,29.00
2017-08-30T12:49:07.973Z,28.90
2017-08-30T12:51:35.424Z,28.90
2017-08-30T12:54:02.899Z,28.80
2017-08-30T12:56:30.353Z,28.70
2017-08-30T12:58:57.801Z,28.70
2017-08-30T13:01:25.259Z,28.60
2017-08-30T13:03:52.727Z,28.60
2017-08-30T13:06:20.181Z,28.60
2017-08-30T13:08:47.642Z,28.60
2017-08-30T13:11:15.105Z,28.60
2017-08-30T13:13:42.569Z,28.70
2017-08-30T13:16:10.029Z,28.70
2017-08-30T13:18:37.492Z,28.70
2017-08-30T13:21:04.941Z,28.70
2017-08-30T13:23:32.411Z,28.70
2017-08-30T13:25:59.871Z,28.70
2017-08-30T13:28:27.322Z,28.70
2017-08-30T13:30:54.769Z,28.70
2017-08-30T13:33:22.235Z,28.80
2017-08-30T13:35:49.684Z,28.80
2017-08-30T13:38:17.144Z,28.80
2017-08-30T13:40:44.606Z,28.80
2017-08-30T13:43:12.073Z,28.80
2017-08-30T13:45:39.532Z,28.70
2017-08-30T13:48:06.995Z,28.80
2017-08-30T13:50:34.467Z,28.70
2017-08-30T13:53:01.924Z,28.80
2017-08-30T13:55:29.388Z,28.80
2017-08-30T13:57:56.869Z,28.80
2017-08-30T14:00:24.323Z,28.80
2017-08-30T14:02:51.793Z,28.90
2017-08-30T14:05:20.028Z,29.00
2017-08-30T14:07:47.496Z,29.00
2017-08-30T14:10:14.953Z,29.00
2017-08-30T14:12:42.422Z,29.00
2017-08-30T14:15:09.871Z,29.00
2017-08-30T14:17:37.332Z,28.90
2017-08-30T14:20:04.797Z,28.90
2017-08-30T14:22:32.261Z,28.80
2017-08-30T14:24:59.729Z,28.80
2017-08-30T14:27:27.207Z,28.80
2017-08-30T14:29:54.658Z,28.70
2017-08-30T14:32:22.101Z,28.70
2017-08-30T14:34:49.571Z,28.70
2017-08-30T14:37:17.041Z,28.60
2017-08-30T14:39:44.513Z,28.60
2017-08-30T14:42:11.973Z,28.50
2017-08-30T14:44:39.443Z,28.50
2017-08-30T14:47:06.890Z,28.50
2017-08-30T14:49:34.357Z,28.40
2017-08-30T14:52:02.366Z,28.50
2017-08-30T14:54:29.825Z,28.50
2017-08-30T14:56:57.276Z,28.50
2017-08-30T14:59:24.742Z,28.50
2017-08-30T15:01:52.204Z,28.50
2017-08-30T15:04:19.674Z,28.50
2017-08-30T15:06:47.138Z,28.50
2017-08-30T15:09:14.632Z,28.50
2017-08-30T15:11:42.085Z,28.40
2017-08-30T15:14:10.788Z,28.40
2017-08-30T15:16:38.250Z,28.40
2017-08-30T15:19:05.729Z,28.30
2017-08-30T15:21:33.188Z,28.30
2017-08-30T15:24:00.648Z,28.30
2017-08-30T15:26:28.127Z,28.20
2017-08-30T15:28:55.574Z,28.20
2017-08-30T15:31:23.044Z,28.10
2017-08-30T15:33:50.514Z,28.10
2017-08-30T15:36:17.968Z,28.10
2017-08-30T15:38:45.461Z,28.00
2017-08-30T15:41:12.941Z,28.00
2017-08-30T15:43:40.400Z,27.90
2017-08-30T15:46:07.844Z,27.90
2017-08-30T15:48:35.313Z,27.90
2017-08-30T15:51:02.762Z,27.80
2017-08-30T15:53:30.213Z,27.80
2017-08-30T15:55:57.669Z,27.80
2017-08-30T15:58:25.121Z,27.80
2017-08-30T16:00:52.560Z,27.70
2017-08-30T16:03:20.031Z,27.70
2017-08-30T16:05:47.497Z,27.70
2017-08-30T16:08:14.953Z,27.70
2017-08-30T16:10:42.413Z,27.70
2017-08-30T16:13:09.854Z,27.70
2017-08-30T16:15:37.320Z,27.60
2017-08-30T16:18:04.777Z,27.60
2017-08-30T16:20:32.239Z,27.60
2017-08-30T16:22:59.680Z,27.50
2017-08-30T16:25:27.140Z,27.50
2017-08-30T16:27:54.606Z,27.40
2017-08-30T16:30:22.071Z,27.30
2017-08-30T16:32:49.532Z,27.30
2017-08-30T16:35:16.995Z,27.20
2017-08-30T16:37:44.453Z,27.10
2017-08-30T16:40:11.897Z,27.00
2017-08-30T16:42:39.354Z,26.90
2017-08-30T16:45:06.818Z,26.90
2017-08-30T16:47:34.280Z,26.80
2017-08-30T16:50:01.745Z,26.80
2017-08-30T16:52:29.188Z,26.70
2017-08-30T16:54:56.652Z,26.60
2017-08-30T16:57:24.121Z,26.60
2017-08-30T16:59:51.593Z,26.50
2017-08-30T17:02:19.046Z,26.50
2017-08-30T17:04:46.511Z,26.40
2017-08-30T17:07:13.965Z,26.30
2017-08-30T17:09:41.448Z,26.30
2017-08-30T17:12:08.901Z,26.30
2017-08-30T17:14:36.353Z,26.20
2017-08-30T17:17:03.813Z,26.20
2017-08-30T17:19:31.258Z,26.20
2017-08-30T17:21:58.737Z,26.20
2017-08-30T17:24:26.931Z,26.10
2017-08-30T17:26:54.402Z,26.10
2017-08-30T17:29:21.853Z,26.10
2017-08-30T17:31:49.321Z,26.00
2017-08-30T17:34:16.790Z,26.00
2017-08-30T17:36:44.258Z,26.00
2017-08-30T17:39:11.725Z,26.00
2017-08-30T17:41:39.189Z,25.90
2017-08-30T17:44:06.645Z,25.90
2017-08-30T17:46:34.113Z,25.80
2017-08-30T17:49:01.574Z,25.80
2017-08-30T17:51:29.032Z,25.80
2017-08-30T17:53:56.504Z,25.80
2017-08-30T17:56:23.986Z,25.80
2017-08-30T17:58:51.445Z,25.80
2017-08-30T18:01:18.897Z,25.70
2017-08-30T18:03:46.369Z,25.70
2017-08-30T18:06:13.829Z,25.70
2017-08-30T18:08:41.306Z,25.70
2017-08-30T18:11:08.757Z,25.70
2017-08-30T18:13:36.210Z,25.70
2017-08-30T18:16:03.664Z,25.70
2017-08-30T18:18:31.124Z,25.70
2017-08-30T18:20:58.588Z,25.80
2017-08-30T18:23:26.032Z,25.70
2017-08-30T18:25:53.488Z,25.70
2017-08-30T18:28:20.943Z,25.70
2017-08-30T18:30:48.396Z,25.70
2017-08-30T18:33:15.844Z,25.70
2017-08-30T18:35:43.313Z,25.70
2017-08-30T18:38:10.768Z,25.60
2017-08-30T18:40:38.228Z,25.70
2017-08-30T18:43:05.692Z,25.70
2017-08-30T18:45:33.162Z,25.70
2017-08-30T18:48:00.607Z,25.60
2017-08-30T18:50:28.056Z,25.60
2017-08-30T18:52:55.517Z,25.60
2017-08-30T18:55:22.973Z,25.70
2017-08-30T18:57:50.436Z,25.70
2017-08-30T19:00:17.887Z,25.70
2017-08-30T19:02:45.353Z,25.70
2017-08-30T19:05:12.812Z,25.70
2017-08-30T19:07:40.274Z,25.70
2017-08-30T19:10:07.736Z,25.60
2017-08-30T19:12:35.206Z,25.50
2017-08-30T19:15:02.672Z,25.50
2017-08-30T19:17:30.133Z,25.50
2017-08-30T19:19:57.596Z,25.50
2017-08-30T19:22:25.065Z,25.50
2017-08-30T19:24:52.532Z,25.50
2017-08-30T19:27:20.059Z,25.50
2017-08-30T19:29:47.520Z,25.50
2017-08-30T19:32:14.972Z,25.50
2017-08-30T19:34:42.437Z,25.40
2017-08-30T19:37:10.660Z,25.30
2017-08-30T19:39:38.131Z,25.30
2017-08-30T19:42:05.593Z,25.20
2017-08-30T19:44:33.041Z,25.20
2017-08-30T19:47:00.506Z,25.20
2017-08-30T19:49:27.961Z,25.20
2017-08-30T19:51:55.444Z,25.10
2017-08-30T19:54:22.897Z,25.10
2017-08-30T19:56:50.357Z,25.10
2017-08-30T19:59:17.803Z,25.10
2017-08-30T20:01:45.246Z,25.10
2017-08-30T20:04:12.696Z,25.10
2017-08-30T20:06:40.172Z,25.10
2017-08-30T20:09:07.624Z,25.10
2017-08-30T20:11:35.073Z,25.20
2017-08-30T20:14:02.545Z,25.20
2017-08-30T20:16:30.000Z,25.20
2017-08-30T20:18:57.463Z,25.20
2017-08-30T20:21:24.909Z,25.10
2017-08-30T20:23:52.372Z,25.10
2017-08-30T20:26:19.822Z,25.10
2017-08-30T20:28:47.280Z,25.00
2017-08-30T20:31:14.725Z,25.10
2017-08-30T20:33:42.189Z,25.00
2017-08-30T20:36:09.653Z,25.10
2017-08-30T20:38:37.121Z,25.00
2017-08-30T20:41:04.577Z,25.00
2017-08-30T20:43:32.029Z,25.00
2017-08-30T20:45:59.488Z,25.00
2017-08-30T20:48:26.937Z,25.00
2017-08-30T20:50:54.398Z,24.90
2017-08-30T20:53:21.841Z,24.90
2017-08-30T20:55:49.292Z,24.90
2017-08-30T20:58:16.754Z,24.80
2017-08-30T21:00:44.202Z,24.80
2017-08-30T21:03:11.644Z,24.70
2017-08-30T21:05:39.101Z,24.60
2017-08-30T21:08:06.565Z,24.60
2017-08-30T21:10:34.029Z,24.60
2017-08-30T21:15:19.720Z,24.50
2017-08-30T21:17:47.172Z,24.50
2017-08-30T21:20:15.248Z,24.50
2017-08-30T21:22:42.714Z,24.50
2017-08-30T21:25:10.173Z,24.40
2017-08-30T21:27:37.621Z,24.40
2017-08-30T21:30:05.065Z,24.30
2017-08-30T21:32:32.520Z,24.30
2017-08-30T21:35:00.361Z,24.30
2017-08-30T21:37:27.825Z,24.20
2017-08-30T21:39:55.289Z,24.20
2017-08-30T21:42:22.748Z,24.20
2017-08-30T21:44:50.200Z,24.20
2017-08-30T21:47:17.664Z,24.10
2017-08-30T21:49:45.128Z,24.10
2017-08-30T21:52:12.596Z,24.10
2017-08-30T21:54:40.058Z,24.00
2017-08-30T21:57:07.529Z,24.00
2017-08-30T21:59:34.989Z,24.00
2017-08-30T22:02:02.442Z,24.00
2017-08-30T22:04:29.892Z,24.00
2017-08-30T22:06:57.352Z,24.00
2017-08-30T22:09:24.821Z,24.10
2017-08-30T22:11:52.265Z,24.00
2017-08-30T22:14:19.712Z,24.00
2017-08-30T22:16:47.177Z,24.00
2017-08-30T22:19:14.644Z,24.00
2017-08-30T22:21:42.093Z,24.00
2017-08-30T22:24:09.536Z,23.90
2017-08-30T22:26:36.983Z,23.90
2017-08-30T22:29:04.438Z,23.80
2017-08-30T22:31:31.903Z,23.80
2017-08-30T22:33:59.360Z,23.80
2017-08-30T22:36:26.816Z,23.80
2017-08-30T22:38:54.276Z,23.80
2017-08-30T22:41:21.754Z,23.80
2017-08-30T22:43:49.230Z,23.80
2017-08-30T22:46:16.681Z,23.70
2017-08-30T22:48:44.137Z,23.70
2017-08-30T22:51:11.580Z,23.70
2017-08-30T22:53:39.053Z,23.70
2017-08-30T22:56:06.504Z,23.70
2017-08-30T22:58:33.949Z,23.60
2017-08-30T23:01:01.393Z,23.60
2017-08-30T23:03:28.852Z,23.60
2017-08-30T23:05:56.313Z,23.60
2017-08-30T23:08:23.771Z,23.60
2017-08-30T23:10:51.213Z,23.60
2017-08-30T23:13:18.669Z,23.60
2017-08-30T23:15:46.112Z,23.60
2017-08-30T23:18:13.576Z,23.50
2017-08-30T23:20:41.033Z,23.50
2017-08-30T23:23:08.477Z,23.50
2017-08-30T23:25:35.930Z,23.40
2017-08-30T23:28:03.387Z,23.50
2017-08-30T23:30:30.844Z,23.40
2017-08-30T23:32:58.280Z,23.30
2017-08-30T23:35:25.727Z,23.30
2017-08-30T23:37:53.184Z,23.30
2017-08-30T23:40:20.636Z,23.30
2017-08-30T23:42:48.083Z,23.20
2017-08-30T23:45:15.539Z,23.20
2017-08-30T23:47:42.988Z,23.20
2017-08-30T23:50:10.427Z,23.10
2017-08-30T23:52:37.869Z,23.10
2017-08-30T23:55:05.320Z,23.10
2017-08-30T23:57:32.773Z,23.10
